Pagrindinis puslapis
METAR-TAF:

METAR-TAF

Oro uostai :

Midland, Teksasas, Jungtinės Amerikos Valstijos

platuma: 31-56-52N, ilguma: 102-12-31W, Aukštis: 875 m

Dabartinis oras

Ataskaita buvo paskelbta 57 minutes, ne 10:53 UTC
Vėjas 10 kt iš Šiaurės Vakarų
Temperatūra 16°C
Drėgmė 68%
Slėgis 1024 hPa
Matomumas: 16.1 km
Giedras dangus

METAR: KMAF 291053Z 31010KT 10SM CLR 16/10 A3023 RMK AO2 SLP196 T01610100

Laikas: 06:50 (11:50 UTC)

Prognozė

Ataskaita buvo paskelbta 30 minutes, ne 11:20 UTC
Prognozė galioja nuo 29 metu 12 UTC su 30 metu 12 UTC
Vėjas 10 kt iš Rytų
Matomumas: 10 km
Mažai debesys ne aukštis 25000 ft

TAF: KMAF 291120Z 2912/3012 10010KT P6SM FEW250

Orai ataskaitas ir orų prognozės (METAR, TAF).

turimą stotys yra geltonos ir raudonos taškus žemėlapyje.

Perkelti pele per norėdami pamatyti stoties vardą.

Tada spustelėkite, norėdami matyti oro stebėjimo ir prognozės.

Norėdami pakeisti žemėlapį: spustelėkite ant žalios mygtukų su juodo kryžiaus žemyn,; žalią mygtuką su brūkšneliu, jei norite nutolinti; arba žalių rodyklių gretimoms žemėlapius.


METAR-TAF: